Time;durP1;ratioP1;P1;durP2;ratioP2;P2;SDS_P1;SDS_P2;PMS_P1;PMS_P2;Temp;Humidity;BMP_temperature;BMP_pressure;BME280_temperature;BME280_humidity;BME280_pressure;Samples;Min_cycle;Max_cycle;Signal;HPM_P1;HPM_P2
2023/10/31 00:00:27;;;;;;;13.55;5.32;;;;;;;;;;4988799;28;20085;-80
2023/10/31 00:02:52;;;;;;;14.95;5.85;;;;;;;;;;4994003;28;20038;-80
2023/10/31 00:05:17;;;;;;;13.68;5.57;;;;;;;;;;5002225;28;20104;-80
2023/10/31 00:07:43;;;;;;;23.48;6.72;;;;;;;;;;5000471;28;20085;-80
2023/10/31 00:10:09;;;;;;;14.15;5.93;;;;;;;;;;4990535;28;20034;-80
2023/10/31 00:12:34;;;;;;;19.67;6.82;;;;;;;;;;4988216;28;20034;-81
2023/10/31 00:14:59;;;;;;;16.60;6.63;;;;;;;;;;4987906;28;20121;-80
2023/10/31 00:17:25;;;;;;;14.07;5.85;;;;;;;;;;4987162;28;20039;-80
2023/10/31 00:19:50;;;;;;;17.60;5.70;;;;;;;;;;4985552;28;20050;-81
2023/10/31 00:22:15;;;;;;;14.55;5.45;;;;;;;;;;4986658;28;20068;-80
2023/10/31 00:24:41;;;;;;;14.20;5.25;;;;;;;;;;4985247;28;20771;-81
2023/10/31 00:27:06;;;;;;;13.48;5.55;;;;;;;;;;4987366;28;20030;-80
2023/10/31 00:29:31;;;;;;;13.55;5.45;;;;;;;;;;4986226;28;20096;-80
2023/10/31 00:31:57;;;;;;;14.93;6.68;;;;;;;;;;4985603;28;20030;-81
2023/10/31 00:34:22;;;;;;;14.93;5.88;;;;;;;;;;4986419;28;20042;-80
2023/10/31 00:36:47;;;;;;;15.30;6.45;;;;;;;;;;4984995;28;20034;-81
2023/10/31 00:39:13;;;;;;;14.25;5.50;;;;;;;;;;4986741;28;20022;-81
2023/10/31 00:41:39;;;;;;;12.95;5.95;;;;;;;;;;4986860;28;20049;-81
2023/10/31 00:44:05;;;;;;;11.68;5.07;;;;;;;;;;4985604;28;20034;-80
2023/10/31 00:46:30;;;;;;;13.13;5.80;;;;;;;;;;4984911;28;20472;-81
2023/10/31 00:48:55;;;;;;;14.63;6.22;;;;;;;;;;4983981;28;20092;-80
2023/10/31 00:51:21;;;;;;;12.93;5.40;;;;;;;;;;4973640;28;20058;-81
2023/10/31 00:53:47;;;;;;;11.77;5.90;;;;;;;;;;4965447;28;20039;-80
2023/10/31 00:56:12;;;;;;;11.35;5.85;;;;;;;;;;4965489;28;20035;-80
2023/10/31 00:58:37;;;;;;;10.40;4.50;;;;;;;;;;4972733;28;20340;-80
2023/10/31 01:01:03;;;;;;;10.48;4.50;;;;;;;;;;4986095;28;20042;-80
2023/10/31 01:03:28;;;;;;;10.40;5.18;;;;;;;;;;5000844;28;20056;-80
2023/10/31 01:05:53;;;;;;;10.70;4.78;;;;;;;;;;4986358;28;20130;-80
2023/10/31 01:08:19;;;;;;;9.88;5.00;;;;;;;;;;4984798;28;20509;-80
2023/10/31 01:10:45;;;;;;;13.27;5.55;;;;;;;;;;4984503;28;20125;-81
2023/10/31 01:13:11;;;;;;;10.35;5.78;;;;;;;;;;4985492;28;20038;-80
2023/10/31 01:15:36;;;;;;;11.98;5.38;;;;;;;;;;4985227;28;20166;-80
2023/10/31 01:18:01;;;;;;;12.57;5.53;;;;;;;;;;4986389;28;20116;-80
2023/10/31 01:20:27;;;;;;;10.38;5.72;;;;;;;;;;4986564;28;20034;-80
2023/10/31 01:22:52;;;;;;;9.95;5.32;;;;;;;;;;4992131;28;20034;-80
2023/10/31 01:25:17;;;;;;;9.57;5.40;;;;;;;;;;4982019;28;20046;-80
2023/10/31 01:27:43;;;;;;;11.57;5.45;;;;;;;;;;4971160;28;20418;-81
2023/10/31 01:30:09;;;;;;;13.40;5.43;;;;;;;;;;4967025;28;20030;-81
2023/10/31 01:32:34;;;;;;;11.10;4.85;;;;;;;;;;4964912;28;20043;-81
2023/10/31 01:34:59;;;;;;;11.40;5.63;;;;;;;;;;4965153;28;20963;-81
2023/10/31 01:37:25;;;;;;;11.68;5.40;;;;;;;;;;4965914;28;20030;-80
2023/10/31 01:39:50;;;;;;;11.38;4.97;;;;;;;;;;4965990;28;20050;-80
2023/10/31 01:42:16;;;;;;;11.52;5.53;;;;;;;;;;4965860;28;20381;-80
2023/10/31 01:44:42;;;;;;;10.73;5.55;;;;;;;;;;4966461;28;20062;-80
2023/10/31 01:47:07;;;;;;;8.98;5.28;;;;;;;;;;4964765;28;20054;-80
2023/10/31 01:49:32;;;;;;;11.35;5.45;;;;;;;;;;4965752;28;20134;-80
2023/10/31 01:52:01;;;;;;;12.13;5.57;;;;;;;;;;4981045;28;20041;-80
2023/10/31 01:54:26;;;;;;;9.10;4.93;;;;;;;;;;4983814;28;20069;-80
2023/10/31 01:56:56;;;;;;;8.82;4.60;;;;;;;;;;4983820;28;20046;-81
2023/10/31 01:59:22;;;;;;;8.75;4.65;;;;;;;;;;4980489;28;20073;-80
2023/10/31 02:01:48;;;;;;;9.80;5.30;;;;;;;;;;4964149;28;20035;-80
2023/10/31 02:04:13;;;;;;;16.42;4.93;;;;;;;;;;4963700;28;20039;-80
2023/10/31 02:06:38;;;;;;;10.00;4.90;;;;;;;;;;4965823;28;20039;-80
2023/10/31 02:09:04;;;;;;;10.70;5.45;;;;;;;;;;4978566;28;20042;-80
2023/10/31 02:11:29;;;;;;;11.45;5.70;;;;;;;;;;4979753;28;20039;-80
2023/10/31 02:13:55;;;;;;;12.88;5.70;;;;;;;;;;4980260;28;20058;-80
2023/10/31 02:16:20;;;;;;;12.82;6.28;;;;;;;;;;4968219;28;20425;-80
2023/10/31 02:18:45;;;;;;;12.27;6.13;;;;;;;;;;4978717;28;20062;-80
2023/10/31 02:21:11;;;;;;;13.15;6.43;;;;;;;;;;4984453;28;20349;-81
2023/10/31 02:23:36;;;;;;;13.38;6.45;;;;;;;;;;4983283;28;20038;-80
2023/10/31 02:26:03;;;;;;;14.48;6.60;;;;;;;;;;4984652;28;20169;-80
2023/10/31 02:28:28;;;;;;;13.30;6.55;;;;;;;;;;4984411;28;20034;-81
2023/10/31 02:30:57;;;;;;;15.38;7.10;;;;;;;;;;4999321;28;20046;-80
2023/10/31 02:33:22;;;;;;;11.60;6.18;;;;;;;;;;4983694;28;20030;-80
2023/10/31 02:35:48;;;;;;;12.07;6.35;;;;;;;;;;4983553;28;20482;-81
2023/10/31 02:38:13;;;;;;;16.52;6.85;;;;;;;;;;4985089;28;20045;-80
2023/10/31 02:40:38;;;;;;;13.10;5.72;;;;;;;;;;4985057;28;20497;-80
2023/10/31 02:43:04;;;;;;;13.23;5.95;;;;;;;;;;4993388;28;20038;-80
2023/10/31 02:45:29;;;;;;;16.13;6.90;;;;;;;;;;5000223;28;20026;-80
2023/10/31 02:47:55;;;;;;;15.60;6.75;;;;;;;;;;5002486;28;20481;-81
2023/10/31 02:50:20;;;;;;;13.85;6.00;;;;;;;;;;4987716;28;20066;-80
2023/10/31 02:52:46;;;;;;;13.88;6.00;;;;;;;;;;4981727;28;20035;-81
2023/10/31 02:55:11;;;;;;;12.52;5.90;;;;;;;;;;4963478;28;20800;-80
2023/10/31 02:57:37;;;;;;;15.40;6.30;;;;;;;;;;4969540;28;20060;-80
2023/10/31 03:00:02;;;;;;;13.70;6.40;;;;;;;;;;4983721;28;20050;-80
2023/10/31 03:02:28;;;;;;;14.05;6.07;;;;;;;;;;4982858;28;20517;-80
2023/10/31 03:04:53;;;;;;;12.98;6.60;;;;;;;;;;4983112;28;20042;-80
2023/10/31 03:07:19;;;;;;;11.73;5.63;;;;;;;;;;4983475;28;20046;-80
2023/10/31 03:09:44;;;;;;;13.07;6.10;;;;;;;;;;4982999;28;20046;-80
2023/10/31 03:12:09;;;;;;;22.00;6.72;;;;;;;;;;4984767;28;20544;-80
2023/10/31 03:14:35;;;;;;;16.13;6.30;;;;;;;;;;4984271;28;20119;-80
2023/10/31 03:17:00;;;;;;;11.38;5.65;;;;;;;;;;4980587;28;20077;-80
2023/10/31 03:19:27;;;;;;;13.63;6.53;;;;;;;;;;4964805;28;20051;-80
2023/10/31 03:21:52;;;;;;;15.55;6.47;;;;;;;;;;4962530;28;20473;-80
2023/10/31 03:24:18;;;;;;;13.45;5.85;;;;;;;;;;4964509;28;20633;-80
2023/10/31 03:26:43;;;;;;;13.20;6.18;;;;;;;;;;4984650;28;20114;-80
2023/10/31 03:29:09;;;;;;;15.88;6.20;;;;;;;;;;4964727;28;20047;-80
2023/10/31 03:31:34;;;;;;;13.43;6.20;;;;;;;;;;4963024;28;20122;-80
2023/10/31 03:33:59;;;;;;;13.55;6.32;;;;;;;;;;4979104;28;20525;-80
2023/10/31 03:36:24;;;;;;;17.58;7.60;;;;;;;;;;4964572;28;20031;-80
2023/10/31 03:38:50;;;;;;;17.10;7.93;;;;;;;;;;4966229;28;20081;-81
2023/10/31 03:41:16;;;;;;;15.57;7.30;;;;;;;;;;4966022;28;20034;-80
2023/10/31 03:43:41;;;;;;;13.02;6.28;;;;;;;;;;4963572;28;20043;-80
2023/10/31 03:46:07;;;;;;;13.50;6.55;;;;;;;;;;4964468;28;20489;-81
2023/10/31 03:48:32;;;;;;;13.80;6.15;;;;;;;;;;4977221;28;20121;-80
2023/10/31 03:50:57;;;;;;;12.30;5.93;;;;;;;;;;4982839;28;20048;-81
2023/10/31 03:53:23;;;;;;;15.27;6.05;;;;;;;;;;4983743;28;20038;-81
2023/10/31 03:55:48;;;;;;;10.43;5.50;;;;;;;;;;4984016;28;20129;-80
2023/10/31 03:58:13;;;;;;;12.48;6.00;;;;;;;;;;4979603;28;20129;-80
2023/10/31 04:00:39;;;;;;;14.30;6.18;;;;;;;;;;4965605;28;20050;-80
2023/10/31 04:03:05;;;;;;;13.23;5.25;;;;;;;;;;4974871;28;20035;-80
2023/10/31 04:05:30;;;;;;;12.48;5.90;;;;;;;;;;4975854;28;20049;-80
2023/10/31 04:07:55;;;;;;;13.13;5.82;;;;;;;;;;4970268;28;20469;-80
2023/10/31 04:10:21;;;;;;;12.02;5.70;;;;;;;;;;4966126;28;20530;-80
2023/10/31 04:12:46;;;;;;;15.05;6.25;;;;;;;;;;4967151;28;20113;-80
2023/10/31 04:15:12;;;;;;;12.30;6.05;;;;;;;;;;4966578;28;20050;-80
2023/10/31 04:17:38;;;;;;;12.15;5.50;;;;;;;;;;4966445;28;20039;-80
2023/10/31 04:20:03;;;;;;;12.55;5.57;;;;;;;;;;4966325;28;20043;-80
2023/10/31 04:22:29;;;;;;;12.77;5.53;;;;;;;;;;4975959;28;20045;-80
2023/10/31 04:24:54;;;;;;;12.90;5.45;;;;;;;;;;4985234;28;20073;-80
2023/10/31 04:27:19;;;;;;;11.77;5.65;;;;;;;;;;4985245;28;20034;-80
2023/10/31 04:29:45;;;;;;;9.90;5.68;;;;;;;;;;4985865;28;20040;-80
2023/10/31 04:32:10;;;;;;;12.15;5.82;;;;;;;;;;4986459;28;20588;-81
2023/10/31 04:34:36;;;;;;;11.90;5.35;;;;;;;;;;4984660;28;20116;-81
2023/10/31 04:37:02;;;;;;;13.35;5.68;;;;;;;;;;4986616;28;20437;-81
2023/10/31 04:39:27;;;;;;;11.85;6.05;;;;;;;;;;4985068;28;20060;-81
2023/10/31 04:41:52;;;;;;;10.60;5.50;;;;;;;;;;4985894;28;20026;-80
2023/10/31 04:44:18;;;;;;;14.52;6.15;;;;;;;;;;4986472;28;20034;-80
2023/10/31 04:46:43;;;;;;;11.82;5.93;;;;;;;;;;4986274;28;20557;-80
2023/10/31 04:49:09;;;;;;;10.43;5.15;;;;;;;;;;4984434;28;20089;-80
2023/10/31 04:51:35;;;;;;;14.45;5.80;;;;;;;;;;4972773;28;20043;-80
2023/10/31 04:54:01;;;;;;;10.80;5.13;;;;;;;;;;4981956;28;20077;-81
2023/10/31 04:56:26;;;;;;;8.88;4.68;;;;;;;;;;4965478;28;20039;-80
2023/10/31 04:58:51;;;;;;;11.40;5.80;;;;;;;;;;4980569;28;20086;-80
2023/10/31 05:01:17;;;;;;;10.88;5.47;;;;;;;;;;4986507;28;20156;-80
2023/10/31 05:03:42;;;;;;;14.20;5.00;;;;;;;;;;4986324;28;20953;-79
2023/10/31 05:06:08;;;;;;;10.63;4.47;;;;;;;;;;4984999;28;20125;-80
2023/10/31 05:08:33;;;;;;;15.55;5.13;;;;;;;;;;4984759;28;20042;-80
2023/10/31 05:10:59;;;;;;;10.00;5.00;;;;;;;;;;4985974;28;20053;-80
2023/10/31 05:13:24;;;;;;;12.30;5.25;;;;;;;;;;4986035;28;20042;-80
2023/10/31 05:15:50;;;;;;;11.30;5.07;;;;;;;;;;4985072;28;20046;-80
2023/10/31 05:18:16;;;;;;;9.68;4.97;;;;;;;;;;4986045;28;20049;-79
2023/10/31 05:20:42;;;;;;;11.77;5.32;;;;;;;;;;4987892;28;20125;-79
2023/10/31 05:23:07;;;;;;;11.18;5.97;;;;;;;;;;4997161;28;20084;-80
2023/10/31 05:25:32;;;;;;;12.60;5.57;;;;;;;;;;5003447;28;20104;-80
2023/10/31 05:27:59;;;;;;;17.38;6.20;;;;;;;;;;4990088;28;20039;-80
2023/10/31 05:30:25;;;;;;;13.70;6.40;;;;;;;;;;4986240;28;20121;-80
2023/10/31 05:32:51;;;;;;;9.82;5.25;;;;;;;;;;5001594;28;20520;-80
2023/10/31 05:35:16;;;;;;;12.07;6.00;;;;;;;;;;5000789;28;20034;-80
2023/10/31 05:37:41;;;;;;;15.38;5.65;;;;;;;;;;4985076;28;20045;-80
2023/10/31 05:40:07;;;;;;;13.38;6.50;;;;;;;;;;5000525;28;20518;-81
2023/10/31 05:42:32;;;;;;;11.90;6.00;;;;;;;;;;4985454;28;20049;-79
2023/10/31 05:44:59;;;;;;;13.45;5.68;;;;;;;;;;4983905;28;20153;-80
2023/10/31 05:47:24;;;;;;;11.63;6.35;;;;;;;;;;5000060;28;20130;-80
2023/10/31 05:49:50;;;;;;;13.80;5.68;;;;;;;;;;4985375;28;20131;-80
2023/10/31 05:52:15;;;;;;;11.63;5.97;;;;;;;;;;4966819;28;20046;-80
2023/10/31 05:54:40;;;;;;;12.15;6.10;;;;;;;;;;4966494;28;20572;-79
2023/10/31 05:57:06;;;;;;;14.52;6.18;;;;;;;;;;4965906;28;20027;-80
2023/10/31 05:59:32;;;;;;;13.40;5.60;;;;;;;;;;4984678;28;20077;-79
2023/10/31 06:01:58;;;;;;;16.05;6.55;;;;;;;;;;4999778;28;20042;-79
2023/10/31 06:04:24;;;;;;;14.55;6.68;;;;;;;;;;4983660;28;20038;-79
2023/10/31 06:06:50;;;;;;;12.45;6.57;;;;;;;;;;4984435;28;20042;-80
2023/10/31 06:09:15;;;;;;;15.45;6.95;;;;;;;;;;4982661;28;20081;-79
2023/10/31 06:11:42;;;;;;;13.50;6.93;;;;;;;;;;4999727;28;20022;-79
2023/10/31 06:14:08;;;;;;;12.45;6.30;;;;;;;;;;4983068;28;20121;-79
2023/10/31 06:16:43;;;;;;;14.50;5.80;;;;;;;;;;4984381;28;20137;-80
2023/10/31 06:19:08;;;;;;;11.48;6.05;;;;;;;;;;4984236;28;20912;-80
2023/10/31 06:21:34;;;;;;;12.70;6.28;;;;;;;;;;4984504;28;20038;-79
2023/10/31 06:23:59;;;;;;;13.48;5.70;;;;;;;;;;4972091;28;20035;-80
2023/10/31 06:26:24;;;;;;;12.90;5.57;;;;;;;;;;4964955;28;20121;-80
2023/10/31 06:28:50;;;;;;;9.73;4.88;;;;;;;;;;4979699;28;20537;-79
2023/10/31 06:31:15;;;;;;;8.80;4.80;;;;;;;;;;4963997;28;20038;-80
2023/10/31 06:33:40;;;;;;;9.95;5.13;;;;;;;;;;4963404;28;20039;-79
2023/10/31 06:36:07;;;;;;;14.82;5.15;;;;;;;;;;4964711;28;20069;-79
2023/10/31 06:38:32;;;;;;;10.65;5.10;;;;;;;;;;4965672;28;20133;-79
2023/10/31 06:40:57;;;;;;;9.85;6.05;;;;;;;;;;4967485;28;20486;-79
2023/10/31 06:43:23;;;;;;;14.30;5.22;;;;;;;;;;4975736;28;20594;-79
2023/10/31 06:45:48;;;;;;;8.57;4.63;;;;;;;;;;4973307;28;20038;-80
2023/10/31 06:48:13;;;;;;;13.90;5.95;;;;;;;;;;4964375;28;20886;-79
2023/10/31 06:50:38;;;;;;;12.10;5.15;;;;;;;;;;4968708;28;20096;-80
2023/10/31 06:53:04;;;;;;;16.42;5.57;;;;;;;;;;4984181;28;20035;-79
2023/10/31 06:55:29;;;;;;;9.35;5.07;;;;;;;;;;4982155;28;20045;-79
2023/10/31 06:57:55;;;;;;;16.63;8.27;;;;;;;;;;4972598;28;20049;-79
2023/10/31 07:00:20;;;;;;;11.48;5.30;;;;;;;;;;4983524;28;20149;-79
2023/10/31 07:02:47;;;;;;;10.05;4.97;;;;;;;;;;4983698;28;20053;-79
2023/10/31 07:05:13;;;;;;;12.52;5.32;;;;;;;;;;4980209;28;20136;-79
2023/10/31 07:07:39;;;;;;;9.27;5.45;;;;;;;;;;4984215;28;20139;-79
2023/10/31 07:10:05;;;;;;;11.65;4.93;;;;;;;;;;4968430;28;20126;-79
2023/10/31 07:12:31;;;;;;;10.57;4.88;;;;;;;;;;4964769;28;20035;-79
2023/10/31 07:14:58;;;;;;;10.57;3.92;;;;;;;;;;4963688;28;20078;-80
2023/10/31 07:17:24;;;;;;;13.43;4.53;;;;;;;;;;4971718;28;20050;-80
2023/10/31 07:19:49;;;;;;;12.80;4.65;;;;;;;;;;4980006;28;20414;-79
2023/10/31 07:22:15;;;;;;;7.80;4.07;;;;;;;;;;4981585;28;20057;-79
2023/10/31 07:24:40;;;;;;;11.95;5.43;;;;;;;;;;4983682;28;20109;-78
2023/10/31 07:27:06;;;;;;;10.55;5.40;;;;;;;;;;4981523;28;20061;-80
2023/10/31 07:29:31;;;;;;;10.02;4.65;;;;;;;;;;4964343;28;20043;-80
2023/10/31 07:31:56;;;;;;;14.63;5.32;;;;;;;;;;4964052;28;20457;-80
2023/10/31 07:34:22;;;;;;;10.95;4.88;;;;;;;;;;4979010;28;20050;-80
2023/10/31 07:36:47;;;;;;;10.98;4.68;;;;;;;;;;4964940;28;20050;-80
2023/10/31 07:39:14;;;;;;;9.23;4.97;;;;;;;;;;4979621;28;20093;-80
2023/10/31 07:41:39;;;;;;;13.68;5.00;;;;;;;;;;4980942;28;20043;-79
2023/10/31 07:44:05;;;;;;;8.68;4.60;;;;;;;;;;4983628;28;20049;-80
2023/10/31 07:46:31;;;;;;;12.35;5.35;;;;;;;;;;4985613;28;20042;-76
2023/10/31 07:48:56;;;;;;;14.05;4.93;;;;;;;;;;4987060;28;20042;-80
2023/10/31 07:51:22;;;;;;;10.65;4.63;;;;;;;;;;4977081;28;20098;-79
2023/10/31 07:53:47;;;;;;;9.90;4.70;;;;;;;;;;4975121;28;20075;-80
2023/10/31 07:56:17;;;;;;;10.40;4.78;;;;;;;;;;4983584;28;20409;-80
2023/10/31 07:58:42;;;;;;;14.75;5.00;;;;;;;;;;4980798;28;20042;-80
2023/10/31 08:01:11;;;;;;;15.32;5.15;;;;;;;;;;4984021;28;20588;-80
2023/10/31 08:03:39;;;;;;;12.07;5.18;;;;;;;;;;5000919;28;20076;-80
2023/10/31 08:06:05;;;;;;;10.05;5.18;;;;;;;;;;4999321;28;20030;-81
2023/10/31 08:08:31;;;;;;;10.90;4.43;;;;;;;;;;4989418;28;20153;-80
2023/10/31 08:10:58;;;;;;;11.57;5.03;;;;;;;;;;4982774;28;20110;-80
2023/10/31 08:13:24;;;;;;;13.48;4.38;;;;;;;;;;4985376;28;20085;-80
2023/10/31 08:15:49;;;;;;;13.65;5.43;;;;;;;;;;4985312;28;20524;-80
2023/10/31 08:18:14;;;;;;;13.80;5.05;;;;;;;;;;4983587;28;20034;-79
2023/10/31 08:20:40;;;;;;;9.68;4.93;;;;;;;;;;4986857;28;20058;-80
2023/10/31 08:23:05;;;;;;;11.73;4.70;;;;;;;;;;4984562;28;20122;-80
2023/10/31 08:25:30;;;;;;;15.93;5.10;;;;;;;;;;4984308;28;20070;-80
2023/10/31 08:27:56;;;;;;;13.88;4.70;;;;;;;;;;4979653;28;20072;-80
2023/10/31 08:30:22;;;;;;;12.85;4.88;;;;;;;;;;4982255;28;20054;-79
2023/10/31 08:32:47;;;;;;;10.55;4.65;;;;;;;;;;4977252;28;20113;-78
2023/10/31 08:35:12;;;;;;;11.48;5.63;;;;;;;;;;4974238;28;20135;-78
2023/10/31 08:37:38;;;;;;;11.70;5.00;;;;;;;;;;4979663;28;20050;-79
2023/10/31 08:40:04;;;;;;;14.80;5.05;;;;;;;;;;4986067;28;20532;-79
2023/10/31 08:42:30;;;;;;;12.75;5.45;;;;;;;;;;4997116;28;20116;-79
2023/10/31 08:44:55;;;;;;;12.90;4.60;;;;;;;;;;4983985;28;20173;-79
2023/10/31 08:47:21;;;;;;;14.82;5.45;;;;;;;;;;4984823;28;20541;-79
2023/10/31 08:49:46;;;;;;;13.00;5.65;;;;;;;;;;4986093;28;20102;-78
2023/10/31 08:52:11;;;;;;;13.52;5.18;;;;;;;;;;4975885;28;20609;-79
2023/10/31 08:54:37;;;;;;;14.35;4.97;;;;;;;;;;4984705;28;20035;-79
2023/10/31 08:57:02;;;;;;;13.82;4.60;;;;;;;;;;4986670;28;20512;-79
2023/10/31 08:59:28;;;;;;;15.77;4.63;;;;;;;;;;4985946;28;20037;-79
2023/10/31 09:01:53;;;;;;;12.98;5.05;;;;;;;;;;4980440;28;20042;-79
2023/10/31 09:04:18;;;;;;;12.15;5.60;;;;;;;;;;4984682;28;20725;-79
2023/10/31 09:06:44;;;;;;;11.13;5.13;;;;;;;;;;4979781;28;20116;-77
2023/10/31 09:09:10;;;;;;;10.82;4.55;;;;;;;;;;4983241;28;20184;-78
2023/10/31 09:11:35;;;;;;;11.70;4.60;;;;;;;;;;4980070;28;20714;-79
2023/10/31 09:14:01;;;;;;;13.82;5.40;;;;;;;;;;4980585;28;20035;-76
2023/10/31 09:16:26;;;;;;;14.65;5.75;;;;;;;;;;4966671;28;20050;-80
2023/10/31 09:18:52;;;;;;;12.13;4.60;;;;;;;;;;4995439;28;20046;-79
2023/10/31 09:21:17;;;;;;;12.30;5.65;;;;;;;;;;4987010;28;20037;-79
2023/10/31 09:23:43;;;;;;;11.70;4.95;;;;;;;;;;4999175;28;20042;-79
2023/10/31 09:26:08;;;;;;;14.55;4.55;;;;;;;;;;4988545;28;20104;-79
2023/10/31 09:28:36;;;;;;;14.35;5.55;;;;;;;;;;4980425;28;20173;-80
2023/10/31 09:31:01;;;;;;;10.65;4.80;;;;;;;;;;4982970;28;20521;-80
2023/10/31 09:33:27;;;;;;;17.90;6.47;;;;;;;;;;4982301;28;20029;-79
2023/10/31 09:35:52;;;;;;;18.05;4.90;;;;;;;;;;4978460;28;20033;-79
2023/10/31 09:38:17;;;;;;;13.98;4.90;;;;;;;;;;4976634;28;20038;-78
2023/10/31 09:40:43;;;;;;;11.38;4.68;;;;;;;;;;4978707;28;20041;-80
2023/10/31 09:43:08;;;;;;;11.10;4.53;;;;;;;;;;4981862;28;20039;-79
2023/10/31 09:45:33;;;;;;;12.27;5.32;;;;;;;;;;4984662;28;20586;-80
2023/10/31 09:48:02;;;;;;;13.95;5.30;;;;;;;;;;4978936;28;20633;-79
2023/10/31 09:50:29;;;;;;;15.55;6.43;;;;;;;;;;4997108;28;20038;-79
2023/10/31 09:52:56;;;;;;;13.10;5.82;;;;;;;;;;4994159;28;20252;-80
2023/10/31 09:55:22;;;;;;;16.02;5.72;;;;;;;;;;4978397;28;20443;-79
2023/10/31 09:57:48;;;;;;;11.93;5.38;;;;;;;;;;4980712;28;20046;-79
2023/10/31 10:00:13;;;;;;;13.15;5.75;;;;;;;;;;4973529;28;20892;-79
2023/10/31 10:02:39;;;;;;;15.38;6.25;;;;;;;;;;4977796;28;20043;-79
2023/10/31 10:05:05;;;;;;;15.98;6.30;;;;;;;;;;4978733;28;20035;-79
2023/10/31 10:07:33;;;;;;;13.77;6.47;;;;;;;;;;4978037;28;20134;-81
2023/10/31 10:10:00;;;;;;;12.68;6.25;;;;;;;;;;4993184;28;20129;-79
2023/10/31 10:12:26;;;;;;;13.98;5.70;;;;;;;;;;4976327;28;20117;-79
2023/10/31 10:14:52;;;;;;;16.08;5.78;;;;;;;;;;4978877;28;20151;-79
2023/10/31 10:17:21;;;;;;;15.45;6.15;;;;;;;;;;4977535;28;20081;-79
2023/10/31 10:19:46;;;;;;;15.00;6.65;;;;;;;;;;4980107;28;20517;-79
2023/10/31 10:22:13;;;;;;;12.93;5.75;;;;;;;;;;4975887;28;20537;-80
2023/10/31 10:24:42;;;;;;;13.38;5.50;;;;;;;;;;4972817;28;20033;-79
2023/10/31 10:27:08;;;;;;;12.38;5.90;;;;;;;;;;4977287;28;20109;-79
2023/10/31 10:29:34;;;;;;;16.25;6.05;;;;;;;;;;4979231;28;20054;-79
2023/10/31 10:32:00;;;;;;;14.60;5.80;;;;;;;;;;4969167;28;20892;-79
2023/10/31 10:34:25;;;;;;;16.10;6.57;;;;;;;;;;4973530;28;20035;-80
2023/10/31 10:36:51;;;;;;;13.65;6.15;;;;;;;;;;4977474;28;20090;-80
2023/10/31 10:39:21;;;;;;;12.57;5.57;;;;;;;;;;4981203;28;20064;-79
2023/10/31 10:41:53;;;;;;;17.80;5.93;;;;;;;;;;4997401;28;20030;-79
2023/10/31 10:44:19;;;;;;;13.20;6.15;;;;;;;;;;4997782;28;20418;-79
2023/10/31 10:46:53;;;;;;;15.35;5.95;;;;;;;;;;4971555;28;20525;-79
2023/10/31 10:49:24;;;;;;;17.88;6.38;;;;;;;;;;4979628;28;20056;-78
2023/10/31 10:52:01;;;;;;;15.52;6.53;;;;;;;;;;4979841;28;20038;-78
2023/10/31 10:54:35;;;;;;;15.13;6.30;;;;;;;;;;4975794;28;20026;-77
2023/10/31 10:57:13;;;;;;;13.13;5.60;;;;;;;;;;4978874;28;20039;-76
2023/10/31 10:59:50;;;;;;;13.70;5.40;;;;;;;;;;4980005;28;20552;-76
2023/10/31 11:02:17;;;;;;;15.45;5.82;;;;;;;;;;4954033;28;20545;-75
2023/10/31 11:04:43;;;;;;;13.52;5.93;;;;;;;;;;4940078;28;20049;-75
2023/10/31 11:07:08;;;;;;;14.13;5.97;;;;;;;;;;4963133;28;20038;-76
2023/10/31 11:09:34;;;;;;;12.95;5.45;;;;;;;;;;4964961;28;20047;-76
2023/10/31 11:12:00;;;;;;;15.43;6.47;;;;;;;;;;4964215;28;20018;-76
2023/10/31 11:14:26;;;;;;;14.77;5.07;;;;;;;;;;4963122;28;20039;-76
2023/10/31 11:16:54;;;;;;;14.27;5.93;;;;;;;;;;4964986;28;20039;-76
2023/10/31 11:19:22;;;;;;;10.77;5.45;;;;;;;;;;4961858;28;20041;-76
2023/10/31 11:21:54;;;;;;;16.73;6.40;;;;;;;;;;4966685;28;20031;-76
2023/10/31 11:24:23;;;;;;;15.30;5.63;;;;;;;;;;4967927;28;20033;-76
2023/10/31 11:26:53;;;;;;;14.05;5.65;;;;;;;;;;4968265;28;20764;-76
2023/10/31 11:29:18;;;;;;;11.43;5.60;;;;;;;;;;4967801;28;20027;-75
2023/10/31 11:31:43;;;;;;;11.07;4.57;;;;;;;;;;4966529;28;20077;-76
2023/10/31 11:34:09;;;;;;;9.38;4.38;;;;;;;;;;4971419;28;20050;-76
2023/10/31 11:36:36;;;;;;;8.63;4.57;;;;;;;;;;4968114;28;20062;-76
2023/10/31 11:39:30;;;;;;;10.05;4.03;;;;;;;;;;4979407;28;20096;-75
2023/10/31 11:41:56;;;;;;;9.18;4.22;;;;;;;;;;4970428;28;20112;-80
2023/10/31 11:44:28;;;;;;;7.63;3.85;;;;;;;;;;4985873;28;20035;-76
2023/10/31 11:46:53;;;;;;;8.57;4.20;;;;;;;;;;4986071;28;20074;-76
2023/10/31 11:49:50;;;;;;;7.57;3.70;;;;;;;;;;4945701;28;20142;-76
2023/10/31 11:52:16;;;;;;;6.85;2.95;;;;;;;;;;4985885;28;20034;-76
2023/10/31 11:54:41;;;;;;;7.85;4.00;;;;;;;;;;4987746;28;20061;-75
2023/10/31 11:57:07;;;;;;;9.45;4.22;;;;;;;;;;4979635;28;20034;-77
2023/10/31 11:59:39;;;;;;;11.07;4.60;;;;;;;;;;4994047;28;20046;-77
2023/10/31 12:02:18;;;;;;;9.85;4.82;;;;;;;;;;4998706;28;20575;-77
2023/10/31 12:04:43;;;;;;;10.43;5.15;;;;;;;;;;4970330;28;20053;-76
2023/10/31 12:07:08;;;;;;;9.30;4.75;;;;;;;;;;4954231;28;20050;-76
2023/10/31 12:09:46;;;;;;;9.55;4.28;;;;;;;;;;4972901;28;20886;-76
2023/10/31 12:12:11;;;;;;;11.10;4.00;;;;;;;;;;4964762;28;20030;-76
2023/10/31 12:14:37;;;;;;;9.15;4.13;;;;;;;;;;4966708;28;20038;-76
2023/10/31 12:17:10;;;;;;;10.45;4.65;;;;;;;;;;4965043;28;20631;-76
2023/10/31 12:19:36;;;;;;;11.48;4.85;;;;;;;;;;4966879;28;20047;-75
2023/10/31 12:22:02;;;;;;;10.68;4.20;;;;;;;;;;4962661;28;20062;-76
2023/10/31 12:24:28;;;;;;;13.57;4.63;;;;;;;;;;4967153;28;20023;-76
2023/10/31 12:26:53;;;;;;;12.73;4.78;;;;;;;;;;4985256;28;20030;-75
2023/10/31 12:29:20;;;;;;;16.83;4.80;;;;;;;;;;4986414;28;20038;-76
2023/10/31 12:31:53;;;;;;;11.38;5.15;;;;;;;;;;4980174;28;20038;-76
2023/10/31 12:34:21;;;;;;;8.35;3.95;;;;;;;;;;4982716;28;20149;-76
2023/10/31 12:36:49;;;;;;;7.82;4.05;;;;;;;;;;4984897;28;20073;-76
2023/10/31 12:39:16;;;;;;;11.45;4.50;;;;;;;;;;4986148;28;20023;-76
2023/10/31 12:41:42;;;;;;;11.30;4.35;;;;;;;;;;4986990;28;20105;-76
2023/10/31 12:44:10;;;;;;;11.05;4.25;;;;;;;;;;4985734;28;20045;-76
2023/10/31 12:46:39;;;;;;;7.63;3.50;;;;;;;;;;4954493;28;20045;-76
2023/10/31 12:49:10;;;;;;;8.13;4.40;;;;;;;;;;4973470;28;20038;-76
2023/10/31 12:51:35;;;;;;;12.45;4.03;;;;;;;;;;4973279;28;20061;-76
2023/10/31 12:54:01;;;;;;;8.80;3.90;;;;;;;;;;4967139;28;20418;-76
2023/10/31 12:56:40;;;;;;;7.70;3.17;;;;;;;;;;4966575;28;20054;-76
2023/10/31 12:59:10;;;;;;;8.52;4.55;;;;;;;;;;4965955;28;20046;-77
2023/10/31 13:01:36;;;;;;;10.90;3.90;;;;;;;;;;4966647;28;20035;-76
2023/10/31 13:04:03;;;;;;;6.55;3.83;;;;;;;;;;4973958;28;20632;-76
2023/10/31 13:06:29;;;;;;;9.13;4.00;;;;;;;;;;4983319;28;20022;-76
2023/10/31 13:08:57;;;;;;;8.45;3.70;;;;;;;;;;4986583;28;20383;-77
2023/10/31 13:11:25;;;;;;;8.07;3.85;;;;;;;;;;4984795;28;20026;-81
2023/10/31 13:13:52;;;;;;;9.38;3.58;;;;;;;;;;4984015;28;20534;-78
2023/10/31 13:16:18;;;;;;;10.90;4.10;;;;;;;;;;4987560;28;20141;-77
2023/10/31 13:18:43;;;;;;;8.73;3.22;;;;;;;;;;4991538;28;20498;-79
2023/10/31 13:21:10;;;;;;;7.10;3.83;;;;;;;;;;5000268;28;20057;-78
2023/10/31 13:23:38;;;;;;;6.53;3.10;;;;;;;;;;4998121;28;20038;-77
2023/10/31 13:26:03;;;;;;;7.72;3.05;;;;;;;;;;4986454;28;20034;-78
2023/10/31 13:28:30;;;;;;;9.30;3.10;;;;;;;;;;4984738;28;20108;-77
2023/10/31 13:30:56;;;;;;;8.75;3.50;;;;;;;;;;4985900;28;20074;-77
2023/10/31 13:33:21;;;;;;;6.53;3.70;;;;;;;;;;4985794;28;20022;-79
2023/10/31 13:35:46;;;;;;;8.48;3.63;;;;;;;;;;4984635;28;20509;-79
2023/10/31 13:38:12;;;;;;;5.47;2.95;;;;;;;;;;4985615;28;20077;-79
2023/10/31 13:40:37;;;;;;;10.35;4.22;;;;;;;;;;4985524;28;20061;-77
2023/10/31 13:43:04;;;;;;;11.13;4.18;;;;;;;;;;4983973;28;20041;-78
2023/10/31 13:45:30;;;;;;;11.05;5.88;;;;;;;;;;4983374;28;20544;-80
2023/10/31 13:47:55;;;;;;;15.70;8.02;;;;;;;;;;4984398;28;20026;-80
2023/10/31 13:50:20;;;;;;;14.48;7.13;;;;;;;;;;4981604;28;20579;-81
2023/10/31 13:52:46;;;;;;;8.18;4.35;;;;;;;;;;4980108;28;20042;-82
2023/10/31 13:55:11;;;;;;;9.93;4.50;;;;;;;;;;4973172;28;20528;-83
2023/10/31 13:57:37;;;;;;;10.63;3.78;;;;;;;;;;4984470;28;20466;-87
2023/10/31 14:00:03;;;;;;;8.82;3.88;;;;;;;;;;4985742;28;20046;-83
2023/10/31 14:02:28;;;;;;;8.95;3.58;;;;;;;;;;4985610;28;20038;-82
2023/10/31 14:04:54;;;;;;;7.38;3.30;;;;;;;;;;4984422;28;20039;-82
2023/10/31 14:07:24;;;;;;;8.52;3.47;;;;;;;;;;4977555;28;20422;-83
2023/10/31 14:09:50;;;;;;;9.30;3.33;;;;;;;;;;4965608;28;20142;-76
2023/10/31 14:12:16;;;;;;;8.75;3.40;;;;;;;;;;4965414;28;20113;-83
2023/10/31 14:14:41;;;;;;;12.52;3.00;;;;;;;;;;4966240;28;20065;-86
2023/10/31 14:17:06;;;;;;;7.90;3.00;;;;;;;;;;4965449;28;20039;-81
2023/10/31 14:19:31;;;;;;;7.57;3.25;;;;;;;;;;4964077;28;20058;-82
2023/10/31 14:21:57;;;;;;;12.57;3.35;;;;;;;;;;4971455;28;20038;-80
2023/10/31 14:24:22;;;;;;;10.60;3.40;;;;;;;;;;4974889;28;20069;-79
2023/10/31 14:26:47;;;;;;;8.23;3.50;;;;;;;;;;4965773;28;20109;-80